sensor_id;sensor_type;location;lat;lon;timestamp;temperature;humidity
35593;DHT22;64447;52.140;5.602;2022-11-20T15:43:24;3.50;93.40
35593;DHT22;64447;52.140;5.602;2022-11-20T15:48:44;3.50;93.60
35593;DHT22;64447;52.140;5.602;2022-11-20T15:53:39;3.50;93.50
35593;DHT22;64447;52.140;5.602;2022-11-20T15:56:06;3.70;93.50
35593;DHT22;64447;52.140;5.602;2022-11-20T15:58:31;3.80;93.20
35593;DHT22;64447;52.140;5.602;2022-11-20T16:00:57;3.60;93.00
35593;DHT22;64447;52.140;5.602;2022-11-20T16:11:36;3.50;93.10
35593;DHT22;64447;52.140;5.602;2022-11-20T16:14:03;3.40;93.60
35593;DHT22;64447;52.140;5.602;2022-11-20T16:16:47;3.50;93.90
35593;DHT22;64447;52.140;5.602;2022-11-20T16:19:14;3.30;94.30
35593;DHT22;64447;52.140;5.602;2022-11-20T16:21:41;3.40;94.50
35593;DHT22;64447;52.140;5.602;2022-11-20T16:24:09;3.20;94.30
35593;DHT22;64447;52.140;5.602;2022-11-20T16:26:36;3.30;94.70
35593;DHT22;64447;52.140;5.602;2022-11-20T16:29:03;3.30;94.50
35593;DHT22;64447;52.140;5.602;2022-11-20T16:31:30;3.20;94.60
35593;DHT22;64447;52.140;5.602;2022-11-20T16:33:58;3.00;95.30
35593;DHT22;64447;52.140;5.602;2022-11-20T16:36:25;3.00;96.10
35593;DHT22;64447;52.140;5.602;2022-11-20T16:38:57;2.90;95.80
35593;DHT22;64447;52.140;5.602;2022-11-20T16:41:23;2.90;96.50
35593;DHT22;64447;52.140;5.602;2022-11-20T16:43:53;3.00;96.50
35593;DHT22;64447;52.140;5.602;2022-11-20T16:46:21;3.50;96.00
35593;DHT22;64447;52.140;5.602;2022-11-20T16:55:31;2.90;96.60
35593;DHT22;64447;52.140;5.602;2022-11-20T16:57:56;2.80;96.90
35593;DHT22;64447;52.140;5.602;2022-11-20T17:00:22;2.90;97.20
35593;DHT22;64447;52.140;5.602;2022-11-20T17:02:48;2.90;97.30
35593;DHT22;64447;52.140;5.602;2022-11-20T17:05:13;3.00;97.40
35593;DHT22;64447;52.140;5.602;2022-11-20T17:07:39;3.00;97.00
35593;DHT22;64447;52.140;5.602;2022-11-20T17:10:05;3.00;97.10
35593;DHT22;64447;52.140;5.602;2022-11-20T17:12:30;3.10;97.00
35593;DHT22;64447;52.140;5.602;2022-11-20T17:14:56;3.10;96.70
35593;DHT22;64447;52.140;5.602;2022-11-20T17:17:22;3.20;96.60
35593;DHT22;64447;52.140;5.602;2022-11-20T17:19:47;3.10;96.60
35593;DHT22;64447;52.140;5.602;2022-11-20T17:22:13;3.20;96.60
35593;DHT22;64447;52.140;5.602;2022-11-20T17:24:38;3.40;96.50
35593;DHT22;64447;52.140;5.602;2022-11-20T17:27:04;3.10;96.70
35593;DHT22;64447;52.140;5.602;2022-11-20T17:29:33;3.10;96.80
35593;DHT22;64447;52.140;5.602;2022-11-20T17:31:58;3.00;96.80
35593;DHT22;64447;52.140;5.602;2022-11-20T17:34:24;3.00;97.20
35593;DHT22;64447;52.140;5.602;2022-11-20T17:36:49;3.10;96.90
35593;DHT22;64447;52.140;5.602;2022-11-20T17:39:16;3.00;97.10
35593;DHT22;64447;52.140;5.602;2022-11-20T17:41:42;3.00;97.30
35593;DHT22;64447;52.140;5.602;2022-11-20T17:44:09;2.90;97.10
35593;DHT22;64447;52.140;5.602;2022-11-20T17:46:35;3.00;97.10
35593;DHT22;64447;52.140;5.602;2022-11-20T17:49:02;3.20;97.00
35593;DHT22;64447;52.140;5.602;2022-11-20T17:55:09;3.20;96.70
35593;DHT22;64447;52.140;5.602;2022-11-20T17:57:34;3.00;96.70
35593;DHT22;64447;52.140;5.602;2022-11-20T18:00:21;3.00;96.80
35593;DHT22;64447;52.140;5.602;2022-11-20T18:02:48;3.00;96.90
35593;DHT22;64447;52.140;5.602;2022-11-20T18:05:14;2.90;97.30
35593;DHT22;64447;52.140;5.602;2022-11-20T18:07:40;3.00;97.10
35593;DHT22;64447;52.140;5.602;2022-11-20T18:10:14;2.90;97.10
35593;DHT22;64447;52.140;5.602;2022-11-20T18:12:39;3.00;97.40
35593;DHT22;64447;52.140;5.602;2022-11-20T18:15:05;3.10;97.20
35593;DHT22;64447;52.140;5.602;2022-11-20T18:17:31;3.00;97.10
35593;DHT22;64447;52.140;5.602;2022-11-20T18:19:56;3.10;97.00
35593;DHT22;64447;52.140;5.602;2022-11-20T18:22:22;3.00;96.80
35593;DHT22;64447;52.140;5.602;2022-11-20T18:24:48;3.10;97.00
35593;DHT22;64447;52.140;5.602;2022-11-20T18:27:16;3.10;97.00
35593;DHT22;64447;52.140;5.602;2022-11-20T18:29:43;3.10;97.00
35593;DHT22;64447;52.140;5.602;2022-11-20T18:32:09;3.30;96.40
35593;DHT22;64447;52.140;5.602;2022-11-20T18:34:35;3.50;96.10
35593;DHT22;64447;52.140;5.602;2022-11-20T18:37:00;3.20;96.10
35593;DHT22;64447;52.140;5.602;2022-11-20T18:39:26;3.20;96.20
35593;DHT22;64447;52.140;5.602;2022-11-20T18:41:51;3.30;96.60
35593;DHT22;64447;52.140;5.602;2022-11-20T18:44:35;3.40;96.40
35593;DHT22;64447;52.140;5.602;2022-11-20T18:47:22;3.50;95.90
35593;DHT22;64447;52.140;5.602;2022-11-20T18:49:52;3.50;95.80
35593;DHT22;64447;52.140;5.602;2022-11-20T18:52:33;3.40;95.90
35593;DHT22;64447;52.140;5.602;2022-11-20T18:55:03;3.40;96.00
35593;DHT22;64447;52.140;5.602;2022-11-20T18:57:29;3.40;96.10
35593;DHT22;64447;52.140;5.602;2022-11-20T18:59:55;3.40;95.90
35593;DHT22;64447;52.140;5.602;2022-11-20T19:02:23;3.50;95.90
35593;DHT22;64447;52.140;5.602;2022-11-20T19:04:49;3.50;96.10
35593;DHT22;64447;52.140;5.602;2022-11-20T19:07:15;3.40;95.90
35593;DHT22;64447;52.140;5.602;2022-11-20T19:09:42;3.50;95.80
35593;DHT22;64447;52.140;5.602;2022-11-20T19:12:09;3.70;95.90
35593;DHT22;64447;52.140;5.602;2022-11-20T19:14:35;3.70;95.20
35593;DHT22;64447;52.140;5.602;2022-11-20T19:17:02;3.80;95.20
35593;DHT22;64447;52.140;5.602;2022-11-20T19:19:30;3.70;94.80
35593;DHT22;64447;52.140;5.602;2022-11-20T19:25:18;3.80;94.90
35593;DHT22;64447;52.140;5.602;2022-11-20T19:27:44;3.90;94.80
35593;DHT22;64447;52.140;5.602;2022-11-20T19:30:10;3.80;94.60
35593;DHT22;64447;52.140;5.602;2022-11-20T19:32:36;3.90;94.90
35593;DHT22;64447;52.140;5.602;2022-11-20T19:35:01;4.10;94.90
35593;DHT22;64447;52.140;5.602;2022-11-20T19:37:28;3.80;94.60
35593;DHT22;64447;52.140;5.602;2022-11-20T19:39:56;3.70;95.00
35593;DHT22;64447;52.140;5.602;2022-11-20T19:42:23;3.70;95.00
35593;DHT22;64447;52.140;5.602;2022-11-20T19:44:49;3.70;95.00
35593;DHT22;64447;52.140;5.602;2022-11-20T19:47:15;3.40;95.20
35593;DHT22;64447;52.140;5.602;2022-11-20T19:49:41;3.50;95.90
35593;DHT22;64447;52.140;5.602;2022-11-20T19:55:28;3.20;96.00
35593;DHT22;64447;52.140;5.602;2022-11-20T19:57:54;3.40;96.30
35593;DHT22;64447;52.140;5.602;2022-11-20T20:00:20;3.40;96.10
35593;DHT22;64447;52.140;5.602;2022-11-20T20:02:46;3.50;96.00
35593;DHT22;64447;52.140;5.602;2022-11-20T20:05:11;3.50;95.50
35593;DHT22;64447;52.140;5.602;2022-11-20T20:07:37;3.60;95.50
35593;DHT22;64447;52.140;5.602;2022-11-20T20:10:05;3.50;95.50
35593;DHT22;64447;52.140;5.602;2022-11-20T20:12:30;3.40;96.00
35593;DHT22;64447;52.140;5.602;2022-11-20T20:14:56;3.40;95.90
35593;DHT22;64447;52.140;5.602;2022-11-20T20:17:21;3.30;96.00
35593;DHT22;64447;52.140;5.602;2022-11-20T20:19:47;3.30;96.00
35593;DHT22;64447;52.140;5.602;2022-11-20T20:25:37;3.40;96.60
35593;DHT22;64447;52.140;5.602;2022-11-20T20:28:04;3.60;95.90
35593;DHT22;64447;52.140;5.602;2022-11-20T20:30:29;3.70;95.40
35593;DHT22;64447;52.140;5.602;2022-11-20T20:32:55;3.70;95.00
35593;DHT22;64447;52.140;5.602;2022-11-20T20:35:21;3.80;95.20
35593;DHT22;64447;52.140;5.602;2022-11-20T20:37:46;4.00;94.80
35593;DHT22;64447;52.140;5.602;2022-11-20T20:40:12;4.00;94.40
35593;DHT22;64447;52.140;5.602;2022-11-20T20:42:38;4.20;94.20
35593;DHT22;64447;52.140;5.602;2022-11-20T20:45:04;4.30;93.90
35593;DHT22;64447;52.140;5.602;2022-11-20T20:47:34;4.50;93.50
35593;DHT22;64447;52.140;5.602;2022-11-20T20:50:00;4.30;93.00
